createdAt,value
2019-02-12T00:00:12.952Z,70.42
2019-02-12T00:02:41.584Z,72.26
2019-02-12T00:05:10.153Z,72.22
2019-02-12T00:07:38.709Z,72.53
2019-02-12T00:10:07.395Z,72.15
2019-02-12T00:12:35.950Z,71.69
2019-02-12T00:15:05.833Z,70.98
2019-02-12T00:17:34.432Z,70.87
2019-02-12T00:20:03.057Z,70.25
2019-02-12T00:22:31.599Z,71.67
2019-02-12T00:25:00.230Z,72.90
2019-02-12T00:27:28.719Z,69.54
2019-02-12T00:29:57.178Z,70.78
2019-02-12T00:32:25.767Z,70.89
2019-02-12T00:34:54.243Z,72.29
2019-02-12T00:37:22.789Z,72.72
2019-02-12T00:39:51.283Z,72.41
2019-02-12T00:42:19.895Z,72.35
2019-02-12T00:44:48.315Z,71.89
2019-02-12T00:47:16.875Z,71.30
2019-02-12T00:49:46.118Z,71.87
2019-02-12T00:52:14.774Z,71.90
2019-02-12T00:54:43.271Z,71.22
2019-02-12T00:57:11.738Z,71.83
2019-02-12T00:59:40.443Z,73.07
2019-02-12T01:02:09.175Z,71.65
2019-02-12T01:04:37.710Z,69.99
2019-02-12T01:07:06.276Z,69.73
2019-02-12T01:09:34.821Z,71.57
2019-02-12T01:12:03.386Z,72.36
2019-02-12T01:14:32.117Z,71.04
2019-02-12T01:17:00.701Z,71.91
2019-02-12T01:19:29.235Z,72.15
2019-02-12T01:21:58.760Z,72.25
2019-02-12T01:24:27.213Z,72.33
2019-02-12T01:26:55.814Z,71.82
2019-02-12T01:29:24.273Z,71.68
2019-02-12T01:31:52.844Z,72.12
2019-02-12T01:34:21.432Z,76.00
2019-02-12T01:36:51.433Z,73.04
2019-02-12T01:39:19.944Z,71.26
2019-02-12T01:41:48.410Z,70.78
2019-02-12T01:44:16.951Z,70.82
2019-02-12T01:46:45.504Z,72.76
2019-02-12T01:49:13.931Z,73.43
2019-02-12T01:51:42.558Z,72.57
2019-02-12T01:54:11.119Z,73.32
2019-02-12T01:56:39.659Z,71.91
2019-02-12T01:59:08.271Z,72.64
2019-02-12T02:01:36.771Z,72.49
2019-02-12T02:04:05.403Z,72.49
2019-02-12T02:06:33.973Z,72.61
2019-02-12T02:09:02.584Z,72.83
2019-02-12T02:11:31.164Z,76.88
2019-02-12T02:13:59.637Z,72.39
2019-02-12T02:16:28.329Z,71.30
2019-02-12T02:18:56.926Z,71.00
2019-02-12T02:21:25.495Z,73.38
2019-02-12T02:23:54.285Z,74.66
2019-02-12T02:26:22.802Z,73.96
2019-02-12T02:28:51.374Z,73.67
2019-02-12T02:31:19.898Z,73.51
2019-02-12T02:33:48.469Z,72.18
2019-02-12T02:36:17.132Z,71.29
2019-02-12T02:38:45.685Z,71.31
2019-02-12T02:41:14.358Z,71.66
2019-02-12T02:43:42.889Z,72.55
2019-02-12T02:46:11.397Z,81.99
2019-02-12T02:48:39.903Z,73.66
2019-02-12T02:51:08.469Z,70.88
2019-02-12T02:53:36.964Z,71.00
2019-02-12T02:56:05.544Z,73.11
2019-02-12T02:58:34.171Z,73.24
2019-02-12T03:01:02.825Z,73.17
2019-02-12T03:03:31.364Z,73.17
2019-02-12T03:05:59.883Z,73.58
2019-02-12T03:08:28.427Z,73.34
2019-02-12T03:10:56.976Z,72.84
2019-02-12T03:13:25.576Z,72.15
2019-02-12T03:15:54.270Z,72.15
2019-02-12T03:18:22.787Z,72.50
2019-02-12T03:20:51.275Z,74.61
2019-02-12T03:23:19.737Z,75.00
2019-02-12T03:25:48.364Z,73.01
2019-02-12T03:28:17.058Z,71.78
2019-02-12T03:30:45.569Z,71.77
2019-02-12T03:33:14.119Z,73.43
2019-02-12T03:35:42.587Z,74.24
2019-02-12T03:38:11.133Z,75.06
2019-02-12T03:40:39.712Z,74.52
2019-02-12T03:43:08.343Z,74.30
2019-02-12T03:45:36.908Z,74.55
2019-02-12T03:48:05.524Z,73.98
2019-02-12T03:50:34.125Z,74.32
2019-02-12T03:53:02.578Z,74.09
2019-02-12T03:55:31.157Z,73.87
2019-02-12T03:57:59.735Z,77.35
2019-02-12T04:00:28.408Z,74.59
2019-02-12T04:02:59.883Z,73.16
2019-02-12T04:05:28.613Z,73.33
2019-02-12T04:07:57.139Z,74.51
2019-02-12T04:10:26.307Z,74.91
2019-02-12T04:12:54.891Z,75.05
2019-02-12T04:15:23.578Z,75.00
2019-02-12T04:17:52.116Z,73.32
2019-02-12T04:20:20.599Z,73.32
2019-02-12T04:22:49.250Z,74.39
2019-02-12T04:25:17.898Z,73.83
2019-02-12T04:27:46.395Z,73.47
2019-02-12T04:30:14.876Z,73.38
2019-02-12T04:32:43.474Z,75.84
2019-02-12T04:35:12.085Z,75.66
2019-02-12T04:37:41.334Z,72.87
2019-02-12T04:40:11.266Z,72.50
2019-02-12T04:42:39.827Z,73.18
2019-02-12T04:45:10.515Z,74.64
2019-02-12T04:47:39.078Z,76.15
2019-02-12T04:50:10.480Z,75.64
2019-02-12T04:52:39.070Z,75.27
2019-02-12T04:55:09.588Z,75.20
2019-02-12T04:57:38.115Z,74.90
2019-02-12T05:00:17.668Z,74.85
2019-02-12T05:02:46.253Z,74.56
2019-02-12T05:05:15.011Z,74.57
2019-02-12T05:07:43.617Z,75.10
2019-02-12T05:10:15.468Z,76.07
2019-02-12T05:12:44.012Z,74.72
2019-02-12T05:15:12.613Z,73.65
2019-02-12T05:17:41.231Z,75.06
2019-02-12T05:20:12.344Z,75.23
2019-02-12T05:22:43.580Z,75.20
2019-02-12T05:25:13.036Z,75.66
2019-02-12T05:27:41.461Z,74.94
2019-02-12T05:30:12.191Z,75.07
2019-02-12T05:32:41.127Z,74.61
2019-02-12T05:35:09.748Z,74.22
2019-02-12T05:37:38.368Z,74.20
2019-02-12T05:40:11.303Z,74.41
2019-02-12T05:42:39.909Z,75.13
2019-02-12T05:45:12.873Z,79.23
2019-02-12T05:47:41.516Z,74.81
2019-02-12T05:50:12.460Z,73.51
2019-02-12T05:52:41.111Z,72.99
2019-02-12T05:55:09.923Z,75.20
2019-02-12T05:57:38.510Z,75.82
2019-02-12T06:00:13.261Z,75.71
2019-02-12T06:02:41.794Z,74.80
2019-02-12T06:05:10.610Z,75.45
2019-02-12T06:07:39.259Z,75.74
2019-02-12T06:10:10.598Z,74.24
2019-02-12T06:12:39.185Z,75.17
2019-02-12T06:15:07.968Z,74.91
2019-02-12T06:17:36.628Z,75.30
2019-02-12T06:20:07.234Z,78.37
2019-02-12T06:22:35.814Z,76.14
2019-02-12T06:25:08.095Z,74.59
2019-02-12T06:27:36.231Z,73.49
2019-02-12T06:30:06.930Z,74.70
2019-02-12T06:32:38.134Z,75.50
2019-02-12T06:35:08.721Z,75.88
2019-02-12T06:37:37.361Z,75.58
2019-02-12T06:40:12.035Z,75.72
2019-02-12T06:42:40.680Z,75.14
2019-02-12T06:45:11.376Z,75.29
2019-02-12T06:47:39.858Z,75.02
2019-02-12T06:50:13.404Z,74.67
2019-02-12T06:52:42.499Z,74.20
2019-02-12T06:55:11.488Z,75.04
2019-02-12T06:57:40.124Z,75.78
2019-02-12T07:00:13.803Z,74.66
2019-02-12T07:03:08.287Z,74.19
2019-02-12T07:05:37.472Z,74.29
2019-02-12T07:08:30.092Z,75.12
2019-02-12T07:11:10.021Z,75.49
2019-02-12T07:13:41.552Z,75.52
2019-02-12T07:16:13.053Z,74.95
2019-02-12T07:18:47.065Z,74.36
2019-02-12T07:21:18.645Z,73.85
2019-02-12T07:24:15.688Z,73.79
2019-02-12T07:26:50.184Z,74.31
2019-02-12T07:29:36.659Z,74.52
2019-02-12T07:32:23.278Z,76.29
2019-02-12T07:34:57.565Z,74.01
2019-02-12T07:37:35.184Z,72.95
2019-02-12T07:40:31.675Z,73.86
2019-02-12T07:43:18.350Z,74.63
2019-02-12T07:46:07.772Z,75.35
2019-02-12T07:48:57.315Z,74.35
2019-02-12T07:51:56.050Z,74.80
2019-02-12T07:54:30.525Z,74.27
2019-02-12T07:57:07.926Z,74.23
2019-02-12T07:59:41.932Z,74.37
2019-02-12T08:02:28.474Z,74.66
2019-02-12T08:05:25.750Z,74.77
2019-02-12T08:08:19.672Z,77.46
2019-02-12T08:11:08.854Z,74.14
2019-02-12T08:13:55.107Z,74.15
2019-02-12T08:16:35.591Z,74.48
2019-02-12T08:19:12.911Z,74.52
2019-02-12T08:22:01.082Z,74.68
2019-02-12T08:24:47.250Z,75.08
2019-02-12T08:27:35.530Z,74.64
2019-02-12T08:30:22.232Z,74.39
2019-02-12T08:33:02.687Z,75.00
2019-02-12T08:35:57.247Z,74.48
2019-02-12T08:38:39.241Z,74.40
2019-02-12T08:41:22.518Z,75.00
2019-02-12T08:44:20.179Z,76.63
2019-02-12T08:47:09.694Z,74.10
2019-02-12T08:49:43.967Z,73.23
2019-02-12T08:52:18.277Z,74.05
2019-02-12T08:55:04.895Z,74.15
2019-02-12T08:57:42.382Z,73.78
2019-02-12T09:00:28.813Z,73.64
2019-02-12T09:03:18.533Z,72.93
2019-02-12T09:06:12.200Z,73.42
2019-02-12T09:09:07.595Z,73.86
2019-02-12T09:11:39.122Z,73.73
2019-02-12T09:14:10.624Z,72.60
2019-02-12T09:16:58.321Z,72.91
2019-02-12T09:19:35.435Z,74.53
2019-02-12T09:22:21.960Z,72.46
2019-02-12T09:25:08.641Z,71.26
2019-02-12T09:28:07.266Z,71.65
2019-02-12T09:30:59.926Z,72.33
2019-02-12T09:33:43.111Z,73.21
2019-02-12T09:36:30.993Z,73.55
2019-02-12T09:39:10.964Z,73.17
2019-02-12T09:41:48.281Z,72.92
2019-02-12T09:44:28.823Z,72.79
2019-02-12T09:47:16.842Z,72.86
2019-02-12T09:50:06.517Z,72.35
2019-02-12T09:53:08.315Z,72.36
2019-02-12T09:56:00.748Z,73.46
2019-02-12T09:58:40.796Z,71.91
2019-02-12T10:01:15.137Z,71.68
2019-02-12T10:04:10.611Z,71.52
2019-02-12T10:06:44.749Z,70.91
2019-02-12T10:09:28.044Z,70.85
2019-02-12T10:12:08.421Z,71.77
2019-02-12T10:14:45.757Z,71.58
2019-02-12T10:17:19.833Z,70.59
2019-02-12T10:19:57.400Z,71.38
2019-02-12T10:22:47.290Z,70.70
2019-02-12T10:25:21.448Z,70.79
2019-02-12T10:28:14.381Z,71.10
2019-02-12T10:30:48.742Z,74.09
2019-02-12T10:33:17.259Z,70.23
2019-02-12T10:35:45.852Z,69.93
2019-02-12T10:40:43.099Z,69.71
2019-02-12T10:43:11.755Z,69.74
2019-02-12T10:45:40.331Z,70.73
2019-02-12T10:48:08.981Z,70.50
2019-02-12T10:50:37.557Z,70.71
2019-02-12T10:53:06.174Z,70.31
2019-02-12T10:55:34.819Z,70.08
2019-02-12T10:58:03.410Z,69.66
2019-02-12T11:00:32.126Z,69.43
2019-02-12T11:03:00.769Z,69.77
2019-02-12T11:05:31.406Z,71.67
2019-02-12T11:08:00.102Z,69.69
2019-02-12T11:10:28.789Z,67.74
2019-02-12T11:12:57.258Z,68.17
2019-02-12T11:15:25.842Z,68.52
2019-02-12T11:17:54.387Z,69.08
2019-02-12T11:20:23.051Z,68.33
2019-02-12T11:22:51.645Z,68.04
2019-02-12T11:25:20.228Z,68.41
2019-02-12T11:27:48.854Z,68.25
2019-02-12T11:30:17.516Z,68.12
2019-02-12T11:32:47.521Z,67.98
2019-02-12T11:35:16.163Z,68.15
2019-02-12T11:37:44.758Z,68.36
2019-02-12T11:40:13.763Z,68.59
2019-02-12T11:42:42.379Z,67.69
2019-02-12T11:45:13.461Z,67.19
2019-02-12T11:47:42.064Z,66.45
2019-02-12T11:50:11.388Z,66.95
2019-02-12T11:52:39.971Z,66.59
2019-02-12T11:55:13.955Z,65.99
2019-02-12T11:57:42.588Z,65.49
2019-02-12T12:00:15.473Z,66.74
2019-02-12T12:02:44.087Z,66.32
2019-02-12T12:05:12.755Z,64.91
2019-02-12T12:07:41.335Z,65.58
2019-02-12T12:10:10.871Z,65.78
2019-02-12T12:12:39.512Z,65.95
2019-02-12T12:15:13.391Z,66.40
2019-02-12T12:17:42.051Z,66.33
2019-02-12T12:20:12.470Z,65.62
2019-02-12T12:22:41.074Z,64.94
2019-02-12T12:25:11.092Z,64.69
2019-02-12T12:27:39.702Z,64.76
2019-02-12T12:30:13.366Z,64.65
2019-02-12T12:32:43.610Z,64.50
2019-02-12T12:35:12.419Z,65.65
2019-02-12T12:37:41.008Z,65.97
2019-02-12T12:40:13.920Z,64.81
2019-02-12T12:42:42.547Z,64.92
2019-02-12T12:45:16.901Z,64.54
2019-02-12T12:47:45.426Z,65.51
2019-02-12T12:50:14.171Z,65.97
2019-02-12T12:52:42.840Z,66.77
2019-02-12T12:55:11.839Z,64.73
2019-02-12T12:57:42.225Z,64.71
2019-02-12T13:00:15.951Z,64.21
2019-02-12T13:02:44.678Z,64.60
2019-02-12T13:05:15.891Z,63.94
2019-02-12T13:07:44.433Z,64.07
2019-02-12T13:10:15.370Z,64.36
2019-02-12T13:12:43.927Z,65.23
2019-02-12T13:15:15.872Z,65.38
2019-02-12T13:17:44.463Z,65.46
2019-02-12T13:20:19.958Z,64.79
2019-02-12T13:22:48.500Z,64.80
2019-02-12T13:25:17.072Z,64.98
2019-02-12T13:27:45.491Z,66.81
2019-02-12T13:30:16.405Z,63.67
2019-02-12T13:32:44.986Z,62.11
2019-02-12T13:35:13.911Z,62.92
2019-02-12T13:37:42.407Z,63.51
2019-02-12T13:40:14.120Z,63.99
2019-02-12T13:42:42.767Z,64.61
2019-02-12T13:45:18.087Z,63.97
2019-02-12T13:47:46.709Z,63.67
2019-02-12T13:50:15.280Z,63.98
2019-02-12T13:52:43.921Z,64.11
2019-02-12T13:55:17.410Z,64.19
2019-02-12T13:57:44.981Z,64.57
2019-02-12T14:00:15.831Z,64.77
2019-02-12T14:02:44.423Z,65.04
2019-02-12T14:05:18.166Z,63.83
2019-02-12T14:07:46.759Z,63.81
2019-02-12T14:10:15.406Z,63.00
2019-02-12T14:12:44.056Z,63.24
2019-02-12T14:15:13.704Z,62.90
2019-02-12T14:17:42.270Z,63.20
2019-02-12T14:20:12.945Z,62.92
2019-02-12T14:22:41.562Z,64.60
2019-02-12T14:25:14.689Z,64.69
2019-02-12T14:27:43.286Z,64.51
2019-02-12T14:30:15.748Z,64.29
2019-02-12T14:32:44.328Z,63.15
2019-02-12T14:35:13.378Z,64.26
2019-02-12T14:37:41.901Z,64.56
2019-02-12T14:40:12.856Z,63.00
2019-02-12T14:42:41.444Z,63.05
2019-02-12T14:45:17.944Z,62.76
2019-02-12T14:47:48.594Z,62.48
2019-02-12T14:50:18.378Z,63.07
2019-02-12T14:52:46.999Z,63.25
2019-02-12T14:55:15.554Z,63.60
2019-02-12T14:57:44.151Z,64.29
2019-02-12T15:00:17.033Z,64.12
2019-02-12T15:02:47.117Z,64.60
2019-02-12T15:05:15.699Z,64.79
2019-02-12T15:07:44.328Z,64.83
2019-02-12T15:10:15.504Z,64.59
2019-02-12T15:12:44.138Z,68.74
2019-02-12T15:15:13.079Z,64.30
2019-02-12T15:17:41.655Z,63.81
2019-02-12T15:20:11.385Z,63.74
2019-02-12T15:22:39.921Z,63.87
2019-02-12T15:25:10.496Z,63.87
2019-02-12T15:27:39.081Z,63.84
2019-02-12T15:30:17.319Z,64.13
2019-02-12T15:32:45.926Z,64.13
2019-02-12T15:35:14.547Z,64.94
2019-02-12T15:37:43.054Z,65.10
2019-02-12T15:40:19.525Z,65.92
2019-02-12T15:42:48.132Z,65.37
2019-02-12T15:45:23.825Z,65.52
2019-02-12T15:47:52.481Z,68.80
2019-02-12T15:50:21.011Z,66.36
2019-02-12T15:52:49.509Z,64.49
2019-02-12T15:55:18.030Z,65.20
2019-02-12T15:57:46.606Z,65.31
2019-02-12T16:00:21.981Z,64.89
2019-02-12T16:02:50.529Z,64.83
2019-02-12T16:05:19.194Z,65.64
2019-02-12T16:07:47.907Z,66.77
2019-02-12T16:10:19.694Z,66.03
2019-02-12T16:12:49.469Z,66.82
2019-02-12T16:15:21.892Z,66.36
2019-02-12T16:17:49.827Z,66.67
2019-02-12T16:20:18.449Z,67.20
2019-02-12T16:22:47.046Z,67.80
2019-02-12T16:25:15.722Z,66.84
2019-02-12T16:27:45.802Z,65.92
2019-02-12T16:30:16.965Z,66.01
2019-02-12T16:32:45.576Z,66.36
2019-02-12T16:35:16.327Z,66.42
2019-02-12T16:37:45.171Z,66.18
2019-02-12T16:40:14.957Z,67.83
2019-02-12T16:42:43.570Z,68.03
2019-02-12T16:45:17.752Z,68.59
2019-02-12T16:47:46.370Z,68.13
2019-02-12T16:50:14.957Z,67.66
2019-02-12T16:52:43.581Z,68.22
2019-02-12T16:55:12.358Z,68.90
2019-02-12T16:57:40.928Z,68.59
2019-02-12T17:00:12.366Z,69.60
2019-02-12T17:02:41.027Z,67.92
2019-02-12T17:05:11.559Z,68.59
2019-02-12T17:07:41.184Z,67.64
2019-02-12T17:10:10.673Z,67.83
2019-02-12T17:12:39.259Z,68.93
2019-02-12T17:15:10.283Z,69.28
2019-02-12T17:17:38.903Z,68.55
2019-02-12T17:20:10.676Z,70.33
2019-02-12T17:22:39.292Z,69.69
2019-02-12T17:25:09.977Z,69.50
2019-02-12T17:27:38.619Z,69.76
2019-02-12T17:30:10.428Z,69.77
2019-02-12T17:32:39.053Z,70.07
2019-02-12T17:35:07.951Z,71.28
2019-02-12T17:37:36.590Z,68.80
2019-02-12T17:40:08.079Z,68.10
2019-02-12T17:42:36.664Z,67.93
2019-02-12T17:45:08.586Z,67.97
2019-02-12T17:47:37.235Z,67.91
2019-02-12T17:50:08.372Z,69.06
2019-02-12T17:52:36.907Z,70.35
2019-02-12T17:55:07.388Z,70.23
2019-02-12T17:57:36.091Z,70.34
2019-02-12T18:00:09.080Z,69.93
2019-02-12T18:02:37.703Z,70.27
2019-02-12T18:05:07.099Z,69.43
2019-02-12T18:07:35.730Z,69.74
2019-02-12T18:10:05.136Z,71.64
2019-02-12T18:12:33.697Z,69.73
2019-02-12T18:15:02.255Z,68.69
2019-02-12T18:17:30.731Z,68.79
2019-02-12T18:19:59.314Z,68.16
2019-02-12T18:22:27.945Z,69.38
2019-02-12T18:24:56.644Z,71.32
2019-02-12T18:27:25.243Z,71.43
2019-02-12T18:29:53.884Z,71.64
2019-02-12T18:32:22.535Z,71.34
2019-02-12T18:34:53.408Z,71.28
2019-02-12T18:37:22.112Z,71.52
2019-02-12T18:39:52.466Z,71.37
2019-02-12T18:42:21.311Z,71.26
2019-02-12T18:44:50.035Z,73.51
2019-02-12T18:47:18.630Z,72.71
2019-02-12T18:49:47.156Z,69.99
2019-02-12T18:52:15.790Z,70.50
2019-02-12T18:54:44.379Z,71.17
2019-02-12T18:57:13.041Z,70.94
2019-02-12T18:59:41.590Z,71.88
2019-02-12T19:02:10.718Z,72.45
2019-02-12T19:04:39.284Z,72.30
2019-02-12T19:07:07.875Z,72.12
2019-02-12T19:09:36.454Z,72.23
2019-02-12T19:12:06.077Z,71.96
2019-02-12T19:14:34.494Z,71.76
2019-02-12T19:17:03.076Z,72.25
2019-02-12T19:19:31.660Z,72.25
2019-02-12T19:22:00.325Z,75.23
2019-02-12T19:24:28.976Z,71.79
2019-02-12T19:26:57.634Z,70.89
2019-02-12T19:29:26.260Z,70.95
2019-02-12T19:31:59.268Z,71.00
2019-02-12T19:34:25.335Z,71.80
2019-02-12T19:36:53.992Z,72.37
2019-02-12T19:39:23.963Z,72.64
2019-02-12T19:41:52.917Z,72.73
2019-02-12T19:44:21.494Z,72.02
2019-02-12T19:46:50.013Z,72.58
2019-02-12T19:49:20.103Z,72.15
2019-02-12T19:51:48.494Z,72.61
2019-02-12T19:54:17.194Z,72.61
2019-02-12T19:56:45.719Z,75.44
2019-02-12T19:59:14.274Z,72.15
2019-02-12T20:01:42.861Z,70.00
2019-02-12T20:04:11.448Z,70.91
2019-02-12T20:06:40.071Z,71.59
2019-02-12T20:09:10.463Z,71.79
2019-02-12T20:11:39.118Z,71.84
2019-02-12T20:14:07.815Z,71.48
2019-02-12T20:16:36.375Z,71.65
2019-02-12T20:19:04.977Z,71.82
2019-02-12T20:21:33.669Z,71.93
2019-02-12T20:24:02.271Z,71.12
2019-02-12T20:26:30.934Z,71.63
2019-02-12T20:28:59.544Z,71.46
2019-02-12T20:31:28.233Z,72.37
2019-02-12T20:33:57.319Z,72.50
2019-02-12T20:36:25.847Z,71.14
2019-02-12T20:38:54.354Z,69.86
2019-02-12T20:41:23.000Z,70.08
2019-02-12T20:43:51.585Z,71.67
2019-02-12T20:46:20.289Z,71.86
2019-02-12T20:48:48.983Z,71.99
2019-02-12T20:51:20.512Z,71.90
2019-02-12T20:53:48.903Z,71.72
2019-02-12T20:56:17.457Z,71.57
2019-02-12T20:58:46.119Z,71.07
2019-02-12T21:01:14.725Z,71.25
2019-02-12T21:03:43.376Z,71.27
2019-02-12T21:06:12.002Z,71.44
2019-02-12T21:08:40.659Z,73.59
2019-02-12T21:11:09.285Z,70.83
2019-02-12T21:13:37.821Z,70.67
2019-02-12T21:16:06.524Z,70.43
2019-02-12T21:18:35.188Z,70.26
2019-02-12T21:21:03.769Z,69.91
2019-02-12T21:23:33.457Z,70.11
2019-02-12T21:26:02.466Z,71.37
2019-02-12T21:28:31.086Z,71.72
2019-02-12T21:30:59.664Z,70.74
2019-02-12T21:33:28.219Z,70.86
2019-02-12T21:35:56.863Z,71.52
2019-02-12T21:38:26.608Z,70.79
2019-02-12T21:40:55.233Z,70.97
2019-02-12T21:43:23.867Z,74.40
2019-02-12T21:45:52.517Z,71.04
2019-02-12T21:48:21.160Z,70.62
2019-02-12T21:50:49.926Z,70.79
2019-02-12T21:53:18.522Z,70.93
2019-02-12T21:55:47.123Z,70.69
2019-02-12T21:58:15.791Z,70.32
2019-02-12T22:00:44.477Z,71.28
2019-02-12T22:03:13.045Z,71.27
2019-02-12T22:05:41.632Z,70.72
2019-02-12T22:08:11.090Z,70.33
2019-02-12T22:10:46.182Z,70.21
2019-02-12T22:13:09.941Z,70.33
2019-02-12T22:15:39.251Z,70.99
2019-02-12T22:18:07.868Z,70.93
2019-02-12T22:20:36.478Z,70.71
2019-02-12T22:23:05.055Z,70.99
2019-02-12T22:25:33.753Z,71.48
2019-02-12T22:28:02.867Z,70.82
2019-02-12T22:30:31.582Z,70.43
2019-02-12T22:33:00.098Z,70.19
2019-02-12T22:35:28.697Z,70.02
2019-02-12T22:37:57.255Z,70.40
2019-02-12T22:40:25.934Z,70.20
2019-02-12T22:42:54.559Z,70.21
2019-02-12T22:45:24.229Z,70.32
2019-02-12T22:47:52.788Z,70.58
2019-02-12T22:50:21.377Z,70.93
2019-02-12T22:52:50.011Z,70.91
2019-02-12T22:55:18.587Z,70.96
2019-02-12T22:57:49.267Z,71.45
2019-02-12T23:00:48.743Z,71.14
2019-02-12T23:03:19.251Z,71.34
2019-02-12T23:05:48.046Z,71.82
2019-02-12T23:08:16.644Z,71.15
2019-02-12T23:10:45.338Z,70.93
2019-02-12T23:13:14.238Z,71.09
2019-02-12T23:15:42.801Z,71.33
2019-02-12T23:18:11.495Z,71.52
2019-02-12T23:20:40.108Z,71.14
2019-02-12T23:23:08.698Z,71.64
2019-02-12T23:25:37.398Z,71.26
2019-02-12T23:28:06.008Z,71.89
2019-02-12T23:30:34.609Z,71.71
2019-02-12T23:33:03.378Z,71.85
2019-02-12T23:35:31.908Z,72.19
2019-02-12T23:38:00.468Z,72.16
2019-02-12T23:40:28.988Z,73.74
2019-02-12T23:42:57.602Z,71.79
2019-02-12T23:45:26.140Z,71.57
2019-02-12T23:47:54.708Z,70.97
2019-02-12T23:50:23.333Z,71.55
2019-02-12T23:52:51.920Z,71.54
2019-02-12T23:55:20.460Z,71.81
2019-02-12T23:57:49.023Z,71.93
